sensor_id;sensor_type;location;lat;lon;timestamp;temperature;humidity
15959;DHT22;8078;47.822;9.402;2023-02-18T00:01:09;8.00;99.90
15959;DHT22;8078;47.822;9.402;2023-02-18T00:03:35;8.00;99.90
15959;DHT22;8078;47.822;9.402;2023-02-18T00:06:00;8.00;99.90
15959;DHT22;8078;47.822;9.402;2023-02-18T00:08:34;8.00;99.90
15959;DHT22;8078;47.822;9.402;2023-02-18T00:10:59;8.00;99.90
15959;DHT22;8078;47.822;9.402;2023-02-18T00:13:25;7.90;99.90
15959;DHT22;8078;47.822;9.402;2023-02-18T00:15:50;8.00;99.90
15959;DHT22;8078;47.822;9.402;2023-02-18T00:18:16;7.90;99.90
15959;DHT22;8078;47.822;9.402;2023-02-18T00:20:41;8.00;99.90
15959;DHT22;8078;47.822;9.402;2023-02-18T00:23:07;8.00;99.90
15959;DHT22;8078;47.822;9.402;2023-02-18T00:25:32;7.90;99.90
15959;DHT22;8078;47.822;9.402;2023-02-18T00:27:58;7.90;99.90
15959;DHT22;8078;47.822;9.402;2023-02-18T00:30:23;7.90;99.90
15959;DHT22;8078;47.822;9.402;2023-02-18T00:32:49;7.90;99.90
15959;DHT22;8078;47.822;9.402;2023-02-18T00:35:14;7.90;99.90
15959;DHT22;8078;47.822;9.402;2023-02-18T00:37:40;7.90;99.90
15959;DHT22;8078;47.822;9.402;2023-02-18T00:40:06;7.80;99.90
15959;DHT22;8078;47.822;9.402;2023-02-18T00:42:32;7.80;99.90
15959;DHT22;8078;47.822;9.402;2023-02-18T00:44:58;7.80;99.90
15959;DHT22;8078;47.822;9.402;2023-02-18T00:47:23;7.80;99.90
15959;DHT22;8078;47.822;9.402;2023-02-18T00:49:49;7.80;99.90
15959;DHT22;8078;47.822;9.402;2023-02-18T00:52:14;7.80;99.90
15959;DHT22;8078;47.822;9.402;2023-02-18T00:54:40;7.80;99.90
15959;DHT22;8078;47.822;9.402;2023-02-18T00:57:06;7.70;99.90
15959;DHT22;8078;47.822;9.402;2023-02-18T00:59:31;7.70;99.90
15959;DHT22;8078;47.822;9.402;2023-02-18T01:01:57;7.70;99.90
15959;DHT22;8078;47.822;9.402;2023-02-18T01:04:22;7.70;99.90
15959;DHT22;8078;47.822;9.402;2023-02-18T01:06:48;7.70;99.90
15959;DHT22;8078;47.822;9.402;2023-02-18T01:09:13;7.60;99.90
15959;DHT22;8078;47.822;9.402;2023-02-18T01:11:39;7.60;99.90
15959;DHT22;8078;47.822;9.402;2023-02-18T01:14:04;7.60;99.90
15959;DHT22;8078;47.822;9.402;2023-02-18T01:16:30;7.50;99.90
15959;DHT22;8078;47.822;9.402;2023-02-18T01:18:55;7.60;99.90
15959;DHT22;8078;47.822;9.402;2023-02-18T01:21:21;7.50;99.90
15959;DHT22;8078;47.822;9.402;2023-02-18T01:23:46;7.50;99.90
15959;DHT22;8078;47.822;9.402;2023-02-18T01:26:12;7.50;99.90
15959;DHT22;8078;47.822;9.402;2023-02-18T01:28:39;7.50;99.90
15959;DHT22;8078;47.822;9.402;2023-02-18T01:31:07;7.50;99.90
15959;DHT22;8078;47.822;9.402;2023-02-18T01:33:34;7.50;99.90
15959;DHT22;8078;47.822;9.402;2023-02-18T01:35:59;7.50;99.90
15959;DHT22;8078;47.822;9.402;2023-02-18T01:38:25;7.50;99.90
15959;DHT22;8078;47.822;9.402;2023-02-18T01:40:52;7.50;99.90
15959;DHT22;8078;47.822;9.402;2023-02-18T01:43:19;7.50;99.90
15959;DHT22;8078;47.822;9.402;2023-02-18T01:45:48;7.50;99.90
15959;DHT22;8078;47.822;9.402;2023-02-18T01:48:22;7.50;99.90
15959;DHT22;8078;47.822;9.402;2023-02-18T01:51:02;7.50;99.90
15959;DHT22;8078;47.822;9.402;2023-02-18T01:56:36;7.50;99.90
15959;DHT22;8078;47.822;9.402;2023-02-18T01:59:06;7.50;99.90
15959;DHT22;8078;47.822;9.402;2023-02-18T02:01:32;7.50;99.90
15959;DHT22;8078;47.822;9.402;2023-02-18T02:03:59;7.50;99.90
15959;DHT22;8078;47.822;9.402;2023-02-18T02:06:25;7.50;99.90
15959;DHT22;8078;47.822;9.402;2023-02-18T02:08:54;7.50;99.90
15959;DHT22;8078;47.822;9.402;2023-02-18T02:11:27;7.50;99.90
15959;DHT22;8078;47.822;9.402;2023-02-18T02:19:41;7.50;99.90
15959;DHT22;8078;47.822;9.402;2023-02-18T02:25:26;7.50;99.90
15959;DHT22;8078;47.822;9.402;2023-02-18T02:33:46;7.40;99.90
15959;DHT22;8078;47.822;9.402;2023-02-18T02:37:05;7.40;99.90
15959;DHT22;8078;47.822;9.402;2023-02-18T02:39:37;7.40;99.90
15959;DHT22;8078;47.822;9.402;2023-02-18T02:42:18;7.40;99.90
15959;DHT22;8078;47.822;9.402;2023-02-18T02:45:21;7.40;99.90
15959;DHT22;8078;47.822;9.402;2023-02-18T02:47:54;7.40;99.90
15959;DHT22;8078;47.822;9.402;2023-02-18T02:50:34;7.40;99.90
15959;DHT22;8078;47.822;9.402;2023-02-18T02:53:08;7.40;99.90
15959;DHT22;8078;47.822;9.402;2023-02-18T02:55:36;7.40;99.90
15959;DHT22;8078;47.822;9.402;2023-02-18T02:58:02;7.40;99.90
15959;DHT22;8078;47.822;9.402;2023-02-18T03:09:20;7.50;99.90
15959;DHT22;8078;47.822;9.402;2023-02-18T03:11:59;7.50;99.90
15959;DHT22;8078;47.822;9.402;2023-02-18T03:14:31;7.50;99.90
15959;DHT22;8078;47.822;9.402;2023-02-18T03:17:44;7.40;99.90
15959;DHT22;8078;47.822;9.402;2023-02-18T03:20:09;7.40;99.90
15959;DHT22;8078;47.822;9.402;2023-02-18T03:22:40;7.40;99.90
15959;DHT22;8078;47.822;9.402;2023-02-18T03:25:09;7.40;99.90
15959;DHT22;8078;47.822;9.402;2023-02-18T03:27:57;7.40;99.90
15959;DHT22;8078;47.822;9.402;2023-02-18T03:30:27;7.40;99.90
15959;DHT22;8078;47.822;9.402;2023-02-18T03:32:56;7.40;99.90
15959;DHT22;8078;47.822;9.402;2023-02-18T03:35:23;7.40;99.90
15959;DHT22;8078;47.822;9.402;2023-02-18T03:37:55;7.40;99.90
15959;DHT22;8078;47.822;9.402;2023-02-18T03:40:29;7.40;99.90
15959;DHT22;8078;47.822;9.402;2023-02-18T03:42:57;7.30;99.90
15959;DHT22;8078;47.822;9.402;2023-02-18T03:45:22;7.30;99.90
15959;DHT22;8078;47.822;9.402;2023-02-18T03:47:48;7.30;99.90
15959;DHT22;8078;47.822;9.402;2023-02-18T03:50:14;7.30;99.90
15959;DHT22;8078;47.822;9.402;2023-02-18T03:52:39;7.30;99.90
15959;DHT22;8078;47.822;9.402;2023-02-18T03:55:05;7.30;99.90
15959;DHT22;8078;47.822;9.402;2023-02-18T03:57:31;7.30;99.90
15959;DHT22;8078;47.822;9.402;2023-02-18T03:59:56;7.30;99.90
15959;DHT22;8078;47.822;9.402;2023-02-18T04:02:22;7.30;99.90
15959;DHT22;8078;47.822;9.402;2023-02-18T04:04:47;7.30;99.90
15959;DHT22;8078;47.822;9.402;2023-02-18T04:07:13;7.30;99.90
15959;DHT22;8078;47.822;9.402;2023-02-18T04:09:39;7.30;99.90
15959;DHT22;8078;47.822;9.402;2023-02-18T04:12:04;7.30;99.90
15959;DHT22;8078;47.822;9.402;2023-02-18T04:14:30;7.30;99.90
15959;DHT22;8078;47.822;9.402;2023-02-18T04:16:56;7.30;99.90
15959;DHT22;8078;47.822;9.402;2023-02-18T04:19:21;7.40;99.90
15959;DHT22;8078;47.822;9.402;2023-02-18T04:21:47;7.30;99.90
15959;DHT22;8078;47.822;9.402;2023-02-18T04:24:12;7.30;99.90
15959;DHT22;8078;47.822;9.402;2023-02-18T04:26:38;7.30;99.90
15959;DHT22;8078;47.822;9.402;2023-02-18T04:29:04;7.30;99.90
15959;DHT22;8078;47.822;9.402;2023-02-18T04:31:29;7.30;99.90
15959;DHT22;8078;47.822;9.402;2023-02-18T04:33:55;7.30;99.90
15959;DHT22;8078;47.822;9.402;2023-02-18T04:36:20;7.30;99.90
15959;DHT22;8078;47.822;9.402;2023-02-18T04:38:46;7.30;99.90
15959;DHT22;8078;47.822;9.402;2023-02-18T04:41:11;7.30;99.90
15959;DHT22;8078;47.822;9.402;2023-02-18T04:43:37;7.30;99.90
15959;DHT22;8078;47.822;9.402;2023-02-18T04:46:03;7.30;99.90
15959;DHT22;8078;47.822;9.402;2023-02-18T04:48:29;7.30;99.90
15959;DHT22;8078;47.822;9.402;2023-02-18T04:50:55;7.30;99.90
15959;DHT22;8078;47.822;9.402;2023-02-18T04:53:20;7.20;99.90
15959;DHT22;8078;47.822;9.402;2023-02-18T04:55:52;7.30;99.90
15959;DHT22;8078;47.822;9.402;2023-02-18T04:58:19;7.30;99.90
15959;DHT22;8078;47.822;9.402;2023-02-18T05:00:45;7.20;99.90
15959;DHT22;8078;47.822;9.402;2023-02-18T05:03:10;7.20;99.90
15959;DHT22;8078;47.822;9.402;2023-02-18T05:05:36;7.20;99.90
15959;DHT22;8078;47.822;9.402;2023-02-18T05:08:02;7.30;99.90
15959;DHT22;8078;47.822;9.402;2023-02-18T05:10:28;7.20;99.90
15959;DHT22;8078;47.822;9.402;2023-02-18T05:12:53;7.20;99.90
15959;DHT22;8078;47.822;9.402;2023-02-18T05:15:19;7.30;99.90
15959;DHT22;8078;47.822;9.402;2023-02-18T05:17:44;7.20;99.90
15959;DHT22;8078;47.822;9.402;2023-02-18T05:20:10;7.20;99.90
15959;DHT22;8078;47.822;9.402;2023-02-18T05:22:37;7.20;99.90
15959;DHT22;8078;47.822;9.402;2023-02-18T05:25:03;7.20;99.90
15959;DHT22;8078;47.822;9.402;2023-02-18T05:27:29;7.20;99.90
15959;DHT22;8078;47.822;9.402;2023-02-18T05:29:54;7.20;99.90
15959;DHT22;8078;47.822;9.402;2023-02-18T05:32:20;7.20;99.90
15959;DHT22;8078;47.822;9.402;2023-02-18T05:34:45;7.20;99.90
15959;DHT22;8078;47.822;9.402;2023-02-18T05:37:11;7.20;99.90
15959;DHT22;8078;47.822;9.402;2023-02-18T05:39:38;7.20;99.90
15959;DHT22;8078;47.822;9.402;2023-02-18T05:42:03;7.20;99.90
15959;DHT22;8078;47.822;9.402;2023-02-18T05:44:29;7.20;99.90
15959;DHT22;8078;47.822;9.402;2023-02-18T05:47:02;7.20;99.90
15959;DHT22;8078;47.822;9.402;2023-02-18T05:49:29;7.20;99.90
15959;DHT22;8078;47.822;9.402;2023-02-18T05:51:55;7.10;99.90
15959;DHT22;8078;47.822;9.402;2023-02-18T05:54:21;7.10;99.90
15959;DHT22;8078;47.822;9.402;2023-02-18T05:56:46;7.10;99.90
15959;DHT22;8078;47.822;9.402;2023-02-18T05:59:13;7.10;99.90
15959;DHT22;8078;47.822;9.402;2023-02-18T06:01:39;7.10;99.90
15959;DHT22;8078;47.822;9.402;2023-02-18T06:04:05;7.10;99.90
15959;DHT22;8078;47.822;9.402;2023-02-18T06:06:30;7.00;99.90
15959;DHT22;8078;47.822;9.402;2023-02-18T06:08:56;7.00;99.90
15959;DHT22;8078;47.822;9.402;2023-02-18T06:11:21;7.00;99.90
15959;DHT22;8078;47.822;9.402;2023-02-18T06:13:47;7.00;99.90
15959;DHT22;8078;47.822;9.402;2023-02-18T06:16:13;7.00;99.90
15959;DHT22;8078;47.822;9.402;2023-02-18T06:18:38;7.10;99.90
15959;DHT22;8078;47.822;9.402;2023-02-18T06:21:04;7.00;99.90
15959;DHT22;8078;47.822;9.402;2023-02-18T06:23:30;7.00;99.90
15959;DHT22;8078;47.822;9.402;2023-02-18T06:25:55;7.10;99.90
15959;DHT22;8078;47.822;9.402;2023-02-18T06:28:21;7.00;99.90
15959;DHT22;8078;47.822;9.402;2023-02-18T06:30:47;7.10;99.90
15959;DHT22;8078;47.822;9.402;2023-02-18T06:33:13;7.00;99.90
15959;DHT22;8078;47.822;9.402;2023-02-18T06:35:39;7.00;99.90
15959;DHT22;8078;47.822;9.402;2023-02-18T06:38:04;7.10;99.90
15959;DHT22;8078;47.822;9.402;2023-02-18T06:40:30;7.10;99.90
15959;DHT22;8078;47.822;9.402;2023-02-18T06:42:56;7.00;99.90
15959;DHT22;8078;47.822;9.402;2023-02-18T06:45:21;7.10;99.90
15959;DHT22;8078;47.822;9.402;2023-02-18T06:47:47;7.10;99.90
15959;DHT22;8078;47.822;9.402;2023-02-18T06:50:13;7.10;99.90
15959;DHT22;8078;47.822;9.402;2023-02-18T06:52:38;7.10;99.90
15959;DHT22;8078;47.822;9.402;2023-02-18T06:55:05;7.00;99.90
15959;DHT22;8078;47.822;9.402;2023-02-18T06:57:31;7.10;99.90
15959;DHT22;8078;47.822;9.402;2023-02-18T06:59:56;7.10;99.90
15959;DHT22;8078;47.822;9.402;2023-02-18T07:02:22;7.20;99.90
15959;DHT22;8078;47.822;9.402;2023-02-18T07:04:47;7.10;99.90
15959;DHT22;8078;47.822;9.402;2023-02-18T07:07:13;7.20;99.90
15959;DHT22;8078;47.822;9.402;2023-02-18T07:09:39;7.20;99.90
15959;DHT22;8078;47.822;9.402;2023-02-18T07:12:04;7.20;99.90
15959;DHT22;8078;47.822;9.402;2023-02-18T07:14:30;7.20;99.90
15959;DHT22;8078;47.822;9.402;2023-02-18T07:16:56;7.20;99.90
15959;DHT22;8078;47.822;9.402;2023-02-18T07:19:21;7.30;99.90
15959;DHT22;8078;47.822;9.402;2023-02-18T07:21:47;7.30;99.90
15959;DHT22;8078;47.822;9.402;2023-02-18T07:24:12;7.40;99.90
15959;DHT22;8078;47.822;9.402;2023-02-18T07:26:38;7.40;99.90
15959;DHT22;8078;47.822;9.402;2023-02-18T07:29:03;7.40;99.90
15959;DHT22;8078;47.822;9.402;2023-02-18T07:31:29;7.40;99.90
15959;DHT22;8078;47.822;9.402;2023-02-18T07:33:54;7.40;99.90
15959;DHT22;8078;47.822;9.402;2023-02-18T07:36:20;7.50;99.90
15959;DHT22;8078;47.822;9.402;2023-02-18T07:38:45;7.50;99.90
15959;DHT22;8078;47.822;9.402;2023-02-18T07:41:20;7.50;99.90
15959;DHT22;8078;47.822;9.402;2023-02-18T07:43:46;7.60;99.90
15959;DHT22;8078;47.822;9.402;2023-02-18T07:46:11;7.60;99.90
15959;DHT22;8078;47.822;9.402;2023-02-18T07:48:37;7.50;99.90
15959;DHT22;8078;47.822;9.402;2023-02-18T07:51:10;7.50;99.90
15959;DHT22;8078;47.822;9.402;2023-02-18T07:53:36;7.50;99.90
15959;DHT22;8078;47.822;9.402;2023-02-18T07:56:04;7.50;99.90
15959;DHT22;8078;47.822;9.402;2023-02-18T07:58:32;7.60;99.90
15959;DHT22;8078;47.822;9.402;2023-02-18T08:00:59;7.60;99.90
15959;DHT22;8078;47.822;9.402;2023-02-18T08:03:26;7.70;99.90
15959;DHT22;8078;47.822;9.402;2023-02-18T08:05:53;7.70;99.90
15959;DHT22;8078;47.822;9.402;2023-02-18T08:08:22;7.70;99.90
15959;DHT22;8078;47.822;9.402;2023-02-18T08:10:49;7.90;99.90
15959;DHT22;8078;47.822;9.402;2023-02-18T08:13:15;7.90;99.90
15959;DHT22;8078;47.822;9.402;2023-02-18T08:15:40;7.90;99.90
15959;DHT22;8078;47.822;9.402;2023-02-18T08:18:07;7.80;99.90
15959;DHT22;8078;47.822;9.402;2023-02-18T08:20:37;7.80;99.90
15959;DHT22;8078;47.822;9.402;2023-02-18T08:23:03;7.80;99.90
15959;DHT22;8078;47.822;9.402;2023-02-18T08:25:29;7.80;99.90
15959;DHT22;8078;47.822;9.402;2023-02-18T08:27:55;7.90;99.90
15959;DHT22;8078;47.822;9.402;2023-02-18T08:30:20;7.90;99.90
15959;DHT22;8078;47.822;9.402;2023-02-18T08:32:46;8.00;99.90
15959;DHT22;8078;47.822;9.402;2023-02-18T08:35:12;8.00;99.90
15959;DHT22;8078;47.822;9.402;2023-02-18T08:37:37;8.00;99.90
15959;DHT22;8078;47.822;9.402;2023-02-18T08:40:07;8.10;99.90
15959;DHT22;8078;47.822;9.402;2023-02-18T08:42:32;8.20;99.90
15959;DHT22;8078;47.822;9.402;2023-02-18T08:44:58;8.30;99.90
15959;DHT22;8078;47.822;9.402;2023-02-18T08:47:23;8.30;99.90
15959;DHT22;8078;47.822;9.402;2023-02-18T08:49:49;8.30;99.90
15959;DHT22;8078;47.822;9.402;2023-02-18T08:52:16;8.30;99.90
15959;DHT22;8078;47.822;9.402;2023-02-18T08:54:42;8.20;99.90
15959;DHT22;8078;47.822;9.402;2023-02-18T08:57:07;8.20;99.90
15959;DHT22;8078;47.822;9.402;2023-02-18T08:59:33;8.30;99.90
15959;DHT22;8078;47.822;9.402;2023-02-18T09:01:58;8.30;99.90
15959;DHT22;8078;47.822;9.402;2023-02-18T09:04:24;8.40;99.90
15959;DHT22;8078;47.822;9.402;2023-02-18T09:06:49;8.30;99.90
15959;DHT22;8078;47.822;9.402;2023-02-18T09:09:18;8.40;99.90
15959;DHT22;8078;47.822;9.402;2023-02-18T09:11:44;8.40;99.90
15959;DHT22;8078;47.822;9.402;2023-02-18T09:14:10;8.40;99.90
15959;DHT22;8078;47.822;9.402;2023-02-18T09:16:38;8.40;99.90
15959;DHT22;8078;47.822;9.402;2023-02-18T09:19:04;8.30;99.90
15959;DHT22;8078;47.822;9.402;2023-02-18T09:21:29;8.40;99.90
15959;DHT22;8078;47.822;9.402;2023-02-18T09:23:55;8.40;99.90
15959;DHT22;8078;47.822;9.402;2023-02-18T09:26:22;8.40;99.90
15959;DHT22;8078;47.822;9.402;2023-02-18T09:28:48;8.50;99.90
15959;DHT22;8078;47.822;9.402;2023-02-18T09:31:16;8.50;99.90
15959;DHT22;8078;47.822;9.402;2023-02-18T09:33:45;8.50;99.90
15959;DHT22;8078;47.822;9.402;2023-02-18T09:36:11;8.50;99.90
15959;DHT22;8078;47.822;9.402;2023-02-18T09:38:37;8.40;99.90
15959;DHT22;8078;47.822;9.402;2023-02-18T09:41:05;8.50;99.90
15959;DHT22;8078;47.822;9.402;2023-02-18T09:43:41;8.40;99.90
15959;DHT22;8078;47.822;9.402;2023-02-18T09:46:29;8.50;99.90
15959;DHT22;8078;47.822;9.402;2023-02-18T09:48:57;8.50;99.90
15959;DHT22;8078;47.822;9.402;2023-02-18T09:51:25;8.50;99.90
15959;DHT22;8078;47.822;9.402;2023-02-18T09:53:51;8.50;99.90
15959;DHT22;8078;47.822;9.402;2023-02-18T09:56:27;8.50;99.90
15959;DHT22;8078;47.822;9.402;2023-02-18T09:58:54;8.40;99.90
15959;DHT22;8078;47.822;9.402;2023-02-18T10:01:36;8.40;99.90
15959;DHT22;8078;47.822;9.402;2023-02-18T10:04:09;8.50;99.90
15959;DHT22;8078;47.822;9.402;2023-02-18T10:06:37;8.40;99.90
15959;DHT22;8078;47.822;9.402;2023-02-18T10:09:19;8.40;99.90
15959;DHT22;8078;47.822;9.402;2023-02-18T10:11:56;8.40;99.90
15959;DHT22;8078;47.822;9.402;2023-02-18T10:14:24;8.50;99.90
15959;DHT22;8078;47.822;9.402;2023-02-18T10:16:51;8.50;99.90
15959;DHT22;8078;47.822;9.402;2023-02-18T10:19:50;8.40;99.90
15959;DHT22;8078;47.822;9.402;2023-02-18T10:22:16;8.50;99.90
15959;DHT22;8078;47.822;9.402;2023-02-18T10:24:53;8.60;99.90
15959;DHT22;8078;47.822;9.402;2023-02-18T10:27:32;8.50;99.90
15959;DHT22;8078;47.822;9.402;2023-02-18T10:30:21;8.50;99.90
15959;DHT22;8078;47.822;9.402;2023-02-18T10:32:47;8.60;99.90
15959;DHT22;8078;47.822;9.402;2023-02-18T10:35:39;8.60;99.90
15959;DHT22;8078;47.822;9.402;2023-02-18T10:38:57;8.60;99.90
15959;DHT22;8078;47.822;9.402;2023-02-18T10:41:31;8.60;99.90
15959;DHT22;8078;47.822;9.402;2023-02-18T10:52:04;8.70;99.90
15959;DHT22;8078;47.822;9.402;2023-02-18T10:54:49;8.70;99.90
15959;DHT22;8078;47.822;9.402;2023-02-18T10:57:21;8.70;99.90
15959;DHT22;8078;47.822;9.402;2023-02-18T10:59:55;8.70;99.90
15959;DHT22;8078;47.822;9.402;2023-02-18T11:02:24;8.80;99.90
15959;DHT22;8078;47.822;9.402;2023-02-18T11:04:50;8.90;99.90
15959;DHT22;8078;47.822;9.402;2023-02-18T11:07:22;8.90;99.90
15959;DHT22;8078;47.822;9.402;2023-02-18T11:09:54;9.10;99.90
15959;DHT22;8078;47.822;9.402;2023-02-18T11:12:22;9.00;99.90
15959;DHT22;8078;47.822;9.402;2023-02-18T11:17:35;9.10;99.90
15959;DHT22;8078;47.822;9.402;2023-02-18T11:20:25;9.00;99.90
15959;DHT22;8078;47.822;9.402;2023-02-18T11:23:17;9.10;99.90
15959;DHT22;8078;47.822;9.402;2023-02-18T11:25:53;9.20;99.90
15959;DHT22;8078;47.822;9.402;2023-02-18T11:30:53;9.30;99.90
15959;DHT22;8078;47.822;9.402;2023-02-18T11:35:53;9.20;99.90
15959;DHT22;8078;47.822;9.402;2023-02-18T11:38:31;9.40;99.90
15959;DHT22;8078;47.822;9.402;2023-02-18T11:41:11;9.40;99.90
15959;DHT22;8078;47.822;9.402;2023-02-18T11:43:42;9.50;99.90
15959;DHT22;8078;47.822;9.402;2023-02-18T11:46:13;9.50;99.90
15959;DHT22;8078;47.822;9.402;2023-02-18T11:48:39;9.40;99.90
15959;DHT22;8078;47.822;9.402;2023-02-18T11:51:12;9.40;99.90
15959;DHT22;8078;47.822;9.402;2023-02-18T11:53:38;9.30;99.90
15959;DHT22;8078;47.822;9.402;2023-02-18T11:56:15;9.20;99.90
15959;DHT22;8078;47.822;9.402;2023-02-18T11:58:44;9.30;99.90
15959;DHT22;8078;47.822;9.402;2023-02-18T12:01:45;9.20;99.90
15959;DHT22;8078;47.822;9.402;2023-02-18T12:04:17;9.30;99.90
15959;DHT22;8078;47.822;9.402;2023-02-18T12:10:21;9.30;99.90
15959;DHT22;8078;47.822;9.402;2023-02-18T12:12:34;9.20;99.90
15959;DHT22;8078;47.822;9.402;2023-02-18T12:15:02;9.20;99.90
15959;DHT22;8078;47.822;9.402;2023-02-18T12:25:59;9.50;99.90
15959;DHT22;8078;47.822;9.402;2023-02-18T12:28:54;9.70;99.90
15959;DHT22;8078;47.822;9.402;2023-02-18T12:31:48;9.80;99.90
15959;DHT22;8078;47.822;9.402;2023-02-18T12:34:44;9.70;99.90
15959;DHT22;8078;47.822;9.402;2023-02-18T12:40:45;9.80;99.90
15959;DHT22;8078;47.822;9.402;2023-02-18T12:48:31;9.80;99.90
15959;DHT22;8078;47.822;9.402;2023-02-18T12:51:07;9.80;99.90
15959;DHT22;8078;47.822;9.402;2023-02-18T12:59:17;9.80;99.90
15959;DHT22;8078;47.822;9.402;2023-02-18T13:10:09;9.80;99.90
15959;DHT22;8078;47.822;9.402;2023-02-18T13:13:03;9.80;99.90
15959;DHT22;8078;47.822;9.402;2023-02-18T13:18:17;10.00;99.90
15959;DHT22;8078;47.822;9.402;2023-02-18T13:20:58;9.90;99.90
15959;DHT22;8078;47.822;9.402;2023-02-18T13:23:31;10.00;99.90
15959;DHT22;8078;47.822;9.402;2023-02-18T13:26:04;10.00;99.90
15959;DHT22;8078;47.822;9.402;2023-02-18T13:28:43;10.00;99.90
15959;DHT22;8078;47.822;9.402;2023-02-18T13:34:36;10.10;99.90
15959;DHT22;8078;47.822;9.402;2023-02-18T13:37:17;10.20;99.90
15959;DHT22;8078;47.822;9.402;2023-02-18T13:39:49;10.20;99.90
15959;DHT22;8078;47.822;9.402;2023-02-18T13:53:14;10.30;99.90
15959;DHT22;8078;47.822;9.402;2023-02-18T13:56:04;10.20;99.90
15959;DHT22;8078;47.822;9.402;2023-02-18T14:03:50;10.30;99.90
15959;DHT22;8078;47.822;9.402;2023-02-18T14:06:21;10.30;99.90
15959;DHT22;8078;47.822;9.402;2023-02-18T14:08:48;10.30;99.90
15959;DHT22;8078;47.822;9.402;2023-02-18T14:13:46;10.30;99.90
15959;DHT22;8078;47.822;9.402;2023-02-18T14:16:12;10.40;99.90
15959;DHT22;8078;47.822;9.402;2023-02-18T14:26:24;10.40;99.90
15959;DHT22;8078;47.822;9.402;2023-02-18T14:28:59;10.40;99.90
15959;DHT22;8078;47.822;9.402;2023-02-18T14:31:28;10.50;99.90
15959;DHT22;8078;47.822;9.402;2023-02-18T14:39:25;10.40;99.90
15959;DHT22;8078;47.822;9.402;2023-02-18T14:42:23;10.50;99.90
15959;DHT22;8078;47.822;9.402;2023-02-18T14:48:22;10.40;99.90
15959;DHT22;8078;47.822;9.402;2023-02-18T14:50:51;10.30;99.90
15959;DHT22;8078;47.822;9.402;2023-02-18T14:53:22;10.40;99.90
15959;DHT22;8078;47.822;9.402;2023-02-18T14:55:52;10.40;99.90
15959;DHT22;8078;47.822;9.402;2023-02-18T15:00:57;10.80;99.90
15959;DHT22;8078;47.822;9.402;2023-02-18T15:03:25;10.80;99.90
15959;DHT22;8078;47.822;9.402;2023-02-18T15:05:51;10.80;99.90
15959;DHT22;8078;47.822;9.402;2023-02-18T15:08:24;11.00;99.90
15959;DHT22;8078;47.822;9.402;2023-02-18T15:10:55;11.00;99.90
15959;DHT22;8078;47.822;9.402;2023-02-18T15:13:37;10.90;99.90
15959;DHT22;8078;47.822;9.402;2023-02-18T15:16:08;11.10;99.90
15959;DHT22;8078;47.822;9.402;2023-02-18T15:18:40;11.10;99.90
15959;DHT22;8078;47.822;9.402;2023-02-18T15:21:15;10.80;99.90
15959;DHT22;8078;47.822;9.402;2023-02-18T15:23:42;10.70;99.90
15959;DHT22;8078;47.822;9.402;2023-02-18T15:26:12;10.70;99.90
15959;DHT22;8078;47.822;9.402;2023-02-18T15:28:49;10.80;99.90
15959;DHT22;8078;47.822;9.402;2023-02-18T15:31:15;10.70;99.90
15959;DHT22;8078;47.822;9.402;2023-02-18T15:33:46;10.60;99.90
15959;DHT22;8078;47.822;9.402;2023-02-18T15:36:13;10.50;99.90
15959;DHT22;8078;47.822;9.402;2023-02-18T15:38:39;10.50;99.90
15959;DHT22;8078;47.822;9.402;2023-02-18T15:41:15;10.40;99.90
15959;DHT22;8078;47.822;9.402;2023-02-18T15:44:00;10.60;99.90
15959;DHT22;8078;47.822;9.402;2023-02-18T15:46:27;10.70;99.90
15959;DHT22;8078;47.822;9.402;2023-02-18T15:48:55;10.50;99.90
15959;DHT22;8078;47.822;9.402;2023-02-18T15:51:29;10.40;99.90
15959;DHT22;8078;47.822;9.402;2023-02-18T15:54:01;10.40;99.90
15959;DHT22;8078;47.822;9.402;2023-02-18T15:56:33;10.30;99.90
15959;DHT22;8078;47.822;9.402;2023-02-18T15:59:20;10.30;99.90
15959;DHT22;8078;47.822;9.402;2023-02-18T16:01:51;10.20;99.90
15959;DHT22;8078;47.822;9.402;2023-02-18T16:04:17;10.10;99.90
15959;DHT22;8078;47.822;9.402;2023-02-18T16:06:52;10.10;99.90
15959;DHT22;8078;47.822;9.402;2023-02-18T16:09:25;10.10;99.90
15959;DHT22;8078;47.822;9.402;2023-02-18T16:11:55;10.00;99.90
15959;DHT22;8078;47.822;9.402;2023-02-18T16:14:27;10.00;99.90
15959;DHT22;8078;47.822;9.402;2023-02-18T16:17:13;9.90;99.90
15959;DHT22;8078;47.822;9.402;2023-02-18T16:19:55;9.80;99.90
15959;DHT22;8078;47.822;9.402;2023-02-18T16:22:25;9.70;99.90
15959;DHT22;8078;47.822;9.402;2023-02-18T16:24:58;9.70;99.90
15959;DHT22;8078;47.822;9.402;2023-02-18T16:27:34;9.60;99.90
15959;DHT22;8078;47.822;9.402;2023-02-18T16:30:08;9.60;99.90
15959;DHT22;8078;47.822;9.402;2023-02-18T16:32:38;9.60;99.90
15959;DHT22;8078;47.822;9.402;2023-02-18T16:35:04;9.60;99.90
15959;DHT22;8078;47.822;9.402;2023-02-18T16:37:29;9.50;99.90
15959;DHT22;8078;47.822;9.402;2023-02-18T16:40:24;9.50;99.90
15959;DHT22;8078;47.822;9.402;2023-02-18T16:42:50;9.40;99.90
15959;DHT22;8078;47.822;9.402;2023-02-18T16:45:16;9.40;99.90
15959;DHT22;8078;47.822;9.402;2023-02-18T16:47:44;9.40;99.90
15959;DHT22;8078;47.822;9.402;2023-02-18T16:50:19;9.30;99.90
15959;DHT22;8078;47.822;9.402;2023-02-18T16:52:46;9.30;99.90
15959;DHT22;8078;47.822;9.402;2023-02-18T16:55:19;9.20;99.90
15959;DHT22;8078;47.822;9.402;2023-02-18T16:57:45;9.20;99.90
15959;DHT22;8078;47.822;9.402;2023-02-18T17:00:12;9.20;99.90
15959;DHT22;8078;47.822;9.402;2023-02-18T17:02:38;9.20;99.90
15959;DHT22;8078;47.822;9.402;2023-02-18T17:05:04;9.20;99.90
15959;DHT22;8078;47.822;9.402;2023-02-18T17:07:30;9.20;99.90
15959;DHT22;8078;47.822;9.402;2023-02-18T17:09:57;9.10;99.90
15959;DHT22;8078;47.822;9.402;2023-02-18T17:12:23;9.20;99.90
15959;DHT22;8078;47.822;9.402;2023-02-18T17:14:49;9.20;99.90
15959;DHT22;8078;47.822;9.402;2023-02-18T17:17:15;9.20;99.90
15959;DHT22;8078;47.822;9.402;2023-02-18T17:19:46;9.10;99.90
15959;DHT22;8078;47.822;9.402;2023-02-18T17:22:12;9.10;99.90
15959;DHT22;8078;47.822;9.402;2023-02-18T17:24:38;9.10;99.90
15959;DHT22;8078;47.822;9.402;2023-02-18T17:27:03;9.00;99.90
15959;DHT22;8078;47.822;9.402;2023-02-18T17:29:29;9.00;99.90
15959;DHT22;8078;47.822;9.402;2023-02-18T17:31:55;8.90;99.90
15959;DHT22;8078;47.822;9.402;2023-02-18T17:34:25;8.90;99.90
15959;DHT22;8078;47.822;9.402;2023-02-18T17:36:52;8.90;99.90
15959;DHT22;8078;47.822;9.402;2023-02-18T17:39:19;8.90;99.90
15959;DHT22;8078;47.822;9.402;2023-02-18T17:41:45;9.00;99.90
15959;DHT22;8078;47.822;9.402;2023-02-18T17:44:18;8.90;99.90
15959;DHT22;8078;47.822;9.402;2023-02-18T17:46:44;9.00;99.90
15959;DHT22;8078;47.822;9.402;2023-02-18T17:49:11;8.90;99.90
15959;DHT22;8078;47.822;9.402;2023-02-18T17:51:36;8.90;99.90
15959;DHT22;8078;47.822;9.402;2023-02-18T17:54:13;9.00;99.90
15959;DHT22;8078;47.822;9.402;2023-02-18T17:56:39;8.90;99.90
15959;DHT22;8078;47.822;9.402;2023-02-18T17:59:05;9.00;99.90
15959;DHT22;8078;47.822;9.402;2023-02-18T18:01:30;8.80;99.90
15959;DHT22;8078;47.822;9.402;2023-02-18T18:03:56;8.90;99.90
15959;DHT22;8078;47.822;9.402;2023-02-18T18:06:21;8.80;99.90
15959;DHT22;8078;47.822;9.402;2023-02-18T18:08:47;8.80;99.90
15959;DHT22;8078;47.822;9.402;2023-02-18T18:11:16;8.90;99.90
15959;DHT22;8078;47.822;9.402;2023-02-18T18:13:42;8.90;99.90
15959;DHT22;8078;47.822;9.402;2023-02-18T18:16:11;8.70;99.90